Time;durP1;ratioP1;P1;durP2;ratioP2;P2;SDS_P1;SDS_P2;PMS_P1;PMS_P2;Temp;Humidity;BMP_temperature;BMP_pressure;BME280_temperature;BME280_humidity;BME280_pressure;Samples;Min_cycle;Max_cycle;Signal;HPM_P1;HPM_P2
2024/04/15 00:00:08;;;;;;;;;4.00;3.67;;;;;3.99;66.43;100246.61;112592;232;40237;-55
2024/04/15 00:02:44;;;;;;;;;3.67;2.00;;;;;3.99;66.67;100246.27;112421;232;169031;-55
2024/04/15 00:05:22;;;;;;;;;5.67;5.00;;;;;3.98;66.94;100248.49;112420;233;40331;-57
2024/04/15 00:08:03;;;;;;;;;3.00;2.00;;;;;3.97;67.05;100252.31;112574;232;39660;-56
2024/04/15 00:10:47;;;;;;;;;4.25;3.50;;;;;3.97;67.14;100254.81;112302;232;168788;-55
2024/04/15 00:13:24;;;;;;;;;4.00;4.00;;;;;3.95;67.34;100257.30;112631;232;40610;-57
2024/04/15 00:16:08;;;;;;;;;5.00;4.00;;;;;3.98;67.26;100258.97;112418;236;168309;-58
2024/04/15 00:18:47;;;;;;;;;5.00;4.00;;;;;3.97;67.41;100258.02;112622;232;41564;-58
2024/04/15 00:21:21;;;;;;;;;7.00;4.00;;;;;3.96;67.59;100254.27;112471;232;168021;-58
2024/04/15 00:24:03;;;;;;;;;4.00;3.00;;;;;3.95;67.49;100246.17;112581;232;41019;-58
2024/04/15 00:26:47;;;;;;;;;5.00;4.00;;;;;3.92;67.78;100242.19;112476;232;168253;-58
2024/04/15 00:29:29;;;;;;;;;4.00;3.00;;;;;3.85;68.15;100233.41;112524;232;41280;-55
2024/04/15 00:32:07;;;;;;;;;6.00;4.00;;;;;3.79;68.21;100224.94;112596;232;39929;-55
2024/04/15 00:34:48;;;;;;;;;3.67;3.00;;;;;3.72;68.36;100224.34;112262;233;168155;-56
2024/04/15 00:37:23;;;;;;;;;3.00;3.00;;;;;3.70;68.71;100225.25;112570;236;41883;-56
2024/04/15 00:40:01;;;;;;;;;6.00;5.00;;;;;3.67;68.80;100223.64;112354;232;168092;-58
2024/04/15 00:42:47;;;;;;;;;4.33;3.67;;;;;3.64;69.02;100224.67;112530;232;39715;-58
2024/04/15 00:45:33;;;;;;;;;3.25;2.50;;;;;3.59;69.22;100223.17;112366;236;168008;-57
2024/04/15 00:48:13;;;;;;;;;2.25;2.00;;;;;3.55;69.42;100223.77;112555;236;39942;-54
2024/04/15 00:50:56;;;;;;;;;3.00;3.00;;;;;3.51;69.82;100222.39;112391;232;169332;-54
2024/04/15 00:53:32;;;;;;;;;3.33;3.00;;;;;3.49;70.14;100214.01;112462;232;41005;-55
2024/04/15 00:56:09;;;;;;;;;3.75;3.00;;;;;3.49;70.16;100207.77;112490;232;42422;-55
2024/04/15 00:58:45;;;;;;;;;4.00;2.00;;;;;3.49;70.33;100206.14;112335;232;168826;-57
2024/04/15 01:01:24;;;;;;;;;1.00;1.00;;;;;3.49;70.59;100201.30;112577;232;40580;-58
2024/04/15 01:04:03;;;;;;;;;5.00;3.00;;;;;3.49;70.90;100199.86;112341;232;168746;-57
2024/04/15 01:06:39;;;;;;;;;10.00;5.00;;;;;3.48;71.12;100193.59;112517;232;40694;-57
2024/04/15 01:09:14;;;;;;;;;3.67;3.00;;;;;3.51;71.23;100184.58;112339;232;169114;-57
2024/04/15 01:11:52;;;;;;;;;4.25;4.00;;;;;3.53;71.52;100186.34;112461;234;40874;-57
2024/04/15 01:14:37;;;;;;;;;3.67;2.00;;;;;3.55;71.54;100176.17;112575;232;40792;-58
2024/04/15 01:17:13;;;;;;;;;2.00;2.00;;;;;3.61;71.73;100174.52;112441;236;40051;-59
2024/04/15 01:19:49;;;;;;;;;4.00;3.00;;;;;3.62;71.81;100167.51;112586;235;39944;-58
2024/04/15 01:22:26;;;;;;;;;3.50;2.75;;;;;3.62;72.02;100155.75;112345;232;168097;-58
2024/04/15 01:25:03;;;;;;;;;4.00;3.00;;;;;3.62;72.16;100152.01;112778;232;41639;-59
2024/04/15 01:27:37;;;;;;;;;4.00;3.00;;;;;3.61;72.27;100145.36;112279;237;167846;-59
2024/04/15 01:30:14;;;;;;;;;3.00;3.00;;;;;3.63;72.33;100140.73;112493;235;41169;-55
2024/04/15 01:32:54;;;;;;;;;4.67;3.33;;;;;3.63;72.44;100145.64;112355;232;168159;-55
2024/04/15 01:35:33;;;;;;;;;2.25;2.00;;;;;3.62;72.70;100149.70;112409;236;40071;-54
2024/04/15 01:38:08;;;;;;;;;3.00;2.75;;;;;3.57;72.89;100144.98;112536;232;40961;-57
2024/04/15 01:40:45;;;;;;;;;2.00;2.00;;;;;3.52;73.03;100144.48;112302;232;167867;-58
2024/04/15 01:43:29;;;;;;;;;2.00;1.00;;;;;3.46;73.14;100138.65;112541;232;41405;-54
2024/04/15 01:46:07;;;;;;;;;3.00;2.00;;;;;3.38;73.54;100132.70;112313;235;169081;-55
2024/04/15 01:48:48;;;;;;;;;3.00;3.00;;;;;3.36;73.45;100134.86;112527;235;41980;-57
2024/04/15 01:51:22;;;;;;;;;5.00;3.00;;;;;3.34;73.66;100131.14;112287;235;168960;-57
2024/04/15 01:53:57;;;;;;;;;3.00;2.00;;;;;3.29;73.92;100128.10;112488;236;40027;-56
2024/04/15 01:56:34;;;;;;;;;2.00;2.00;;;;;3.26;74.23;100120.48;112501;232;40968;-55
2024/04/15 01:59:09;;;;;;;;;2.00;2.00;;;;;3.25;74.21;100116.91;112464;233;41485;-58
2024/04/15 02:01:48;;;;;;;;;3.00;3.00;;;;;3.23;74.43;100111.20;112816;231;40471;-58
2024/04/15 02:04:24;;;;;;;;;2.00;2.00;;;;;3.19;74.57;100111.39;112329;231;168843;-59
2024/04/15 02:07:00;;;;;;;;;3.00;3.00;;;;;3.20;74.76;100106.72;112529;232;41403;-59
2024/04/15 02:09:37;;;;;;;;;1.00;1.00;;;;;3.18;74.85;100095.15;112358;232;170272;-58
2024/04/15 02:12:12;;;;;;;;;2.00;1.00;;;;;3.17;74.79;100086.77;112468;233;39723;-58
2024/04/15 02:14:48;;;;;;;;;3.00;2.00;;;;;3.19;74.87;100087.61;112403;232;168852;-54
2024/04/15 02:17:28;;;;;;;;;2.50;2.00;;;;;3.18;75.09;100089.65;112435;233;40982;-55
2024/04/15 02:20:10;;;;;;;;;2.00;2.00;;;;;3.19;75.23;100092.91;112458;236;41206;-55
2024/04/15 02:22:55;;;;;;;;;3.00;3.00;;;;;3.23;75.37;100102.15;112229;233;168794;-55
2024/04/15 02:25:32;;;;;;;;;2.00;2.00;;;;;3.26;75.47;100103.09;112780;232;40056;-57
2024/04/15 02:28:09;;;;;;;;;2.00;1.00;;;;;3.30;75.76;100097.14;112396;233;168706;-58
2024/04/15 02:30:49;;;;;;;;;4.00;3.00;;;;;3.33;75.75;100096.16;112425;236;39979;-58
2024/04/15 02:33:28;;;;;;;;;2.00;2.00;;;;;3.41;75.98;100093.04;112249;236;168670;-57
2024/04/15 02:36:05;;;;;;;;;3.00;2.50;;;;;3.42;76.14;100086.81;112585;235;40825;-57
2024/04/15 02:38:42;;;;;;;;;2.00;2.00;;;;;3.46;76.31;100082.52;112790;232;40848;-56
2024/04/15 02:41:18;;;;;;;;;4.00;3.00;;;;;3.49;76.37;100083.17;112559;236;42359;-55
2024/04/15 02:44:00;;;;;;;;;4.00;4.00;;;;;3.51;76.38;100085.98;112458;232;41843;-54
2024/04/15 02:46:40;;;;;;;;;2.00;1.75;;;;;3.53;76.52;100094.83;112234;232;169515;-54
2024/04/15 02:49:16;;;;;;;;;4.00;2.67;;;;;3.58;76.72;100103.64;112432;236;40229;-54
2024/04/15 02:51:53;;;;;;;;;2.00;2.00;;;;;3.64;76.85;100113.17;112239;232;168148;-54
2024/04/15 02:54:29;;;;;;;;;1.50;1.50;;;;;3.70;77.02;100119.17;112646;232;39735;-55
2024/04/15 02:57:06;;;;;;;;;3.00;2.00;;;;;3.74;77.12;100116.38;112568;235;168975;-55
2024/04/15 02:59:40;;;;;;;;;1.00;1.00;;;;;3.80;77.27;100113.55;112417;236;40314;-58
2024/04/15 03:02:17;;;;;;;;;2.00;2.00;;;;;3.84;77.50;100109.68;112377;232;40409;-58
2024/04/15 03:04:51;;;;;;;;;3.00;2.00;;;;;3.88;77.65;100116.61;112233;236;168768;-54
2024/04/15 03:07:27;;;;;;;;;3.25;2.75;;;;;3.93;77.77;100117.12;112779;232;40493;-54
2024/04/15 03:10:01;;;;;;;;;2.67;2.00;;;;;4.00;77.99;100110.19;112424;232;168548;-58
2024/04/15 03:12:38;;;;;;;;;3.00;2.25;;;;;4.05;78.04;100102.52;112378;232;40159;-59
2024/04/15 03:15:18;;;;;;;;;1.00;1.00;;;;;4.13;77.98;100096.96;112282;232;168896;-58
2024/04/15 03:18:01;;;;;;;;;2.00;2.00;;;;;4.19;77.82;100091.33;112501;232;41804;-62
2024/04/15 03:20:40;;;;;;;;;4.00;3.00;;;;;4.25;77.78;100088.23;112771;232;40617;-58
2024/04/15 03:23:18;;;;;;;;;2.00;2.00;;;;;4.28;77.80;100089.75;112311;235;168364;-57
2024/04/15 03:25:57;;;;;;;;;3.00;3.00;;;;;4.32;77.72;100087.88;112431;233;40369;-57
2024/04/15 03:28:31;;;;;;;;;4.00;4.00;;;;;4.34;77.81;100082.52;112311;232;168758;-55
2024/04/15 03:31:09;;;;;;;;;5.00;4.00;;;;;4.35;77.79;100076.49;112746;235;40217;-56
2024/04/15 03:33:46;;;;;;;;;7.00;5.00;;;;;4.36;77.90;100080.85;112557;232;170275;-56
2024/04/15 03:36:23;;;;;;;;;4.00;2.33;;;;;4.37;78.22;100076.98;112412;233;42067;-56
2024/04/15 03:38:59;;;;;;;;;3.00;2.33;;;;;4.38;78.25;100082.99;112277;232;168343;-56
2024/04/15 03:41:42;;;;;;;;;3.00;3.00;;;;;4.40;78.14;100084.00;112467;235;40398;-56
2024/04/15 03:44:18;;;;;;;;;3.50;3.00;;;;;4.46;78.09;100086.83;112796;232;41096;-55
2024/04/15 03:46:55;;;;;;;;;4.00;3.00;;;;;4.47;78.14;100094.45;112315;235;168131;-55
2024/04/15 03:49:29;;;;;;;;;2.75;3.00;;;;;4.51;78.21;100092.72;112429;234;39642;-55
2024/04/15 03:52:12;;;;;;;;;3.33;2.00;;;;;4.54;78.17;100082.13;112224;236;168377;-55
2024/04/15 03:54:48;;;;;;;;;6.00;4.00;;;;;4.62;78.06;100076.87;112685;232;40162;-56
2024/04/15 03:57:24;;;;;;;;;5.00;5.00;;;;;4.66;77.94;100064.88;112552;235;169112;-56
2024/04/15 03:59:58;;;;;;;;;5.00;4.00;;;;;4.72;78.03;100059.22;112373;236;42152;-55
2024/04/15 04:02:37;;;;;;;;;5.75;4.00;;;;;4.79;78.12;100041.02;112404;234;42133;-55
2024/04/15 04:05:16;;;;;;;;;8.00;6.00;;;;;4.87;78.05;100037.30;112290;235;168783;-59
2024/04/15 04:07:56;;;;;;;;;6.00;4.00;;;;;4.97;78.03;100037.14;112777;235;40276;-57
2024/04/15 04:10:31;;;;;;;;;4.00;4.00;;;;;5.05;77.76;100036.66;112376;233;169047;-58
2024/04/15 04:13:07;;;;;;;;;5.00;4.00;;;;;5.12;77.65;100033.50;112445;232;39690;-56
2024/04/15 04:15:44;;;;;;;;;4.00;3.00;;;;;5.20;77.98;100028.54;112261;237;169405;-56
2024/04/15 04:18:24;;;;;;;;;4.00;3.75;;;;;5.29;77.84;100028.54;112636;233;39978;-57
2024/04/15 04:21:12;;;;;;;;;4.00;3.00;;;;;5.37;77.59;100034.09;112607;235;169582;-59
2024/04/15 04:23:51;;;;;;;;;6.00;4.00;;;;;5.43;77.94;100035.75;112381;232;40765;-57
2024/04/15 04:26:28;;;;;;;;;4.00;3.00;;;;;5.49;77.75;100040.98;112421;232;40958;-56
2024/04/15 04:29:08;;;;;;;;;9.00;5.00;;;;;5.53;77.76;100041.24;112310;236;168379;-57
2024/04/15 04:31:46;;;;;;;;;4.00;4.00;;;;;5.61;77.89;100043.27;112402;236;40298;-57
2024/04/15 04:34:21;;;;;;;;;3.50;3.00;;;;;5.68;77.67;100039.29;112279;236;168484;-58
2024/04/15 04:36:57;;;;;;;;;5.00;5.00;;;;;5.73;77.40;100040.80;112679;235;40831;-58
2024/04/15 04:39:37;;;;;;;;;7.00;5.00;;;;;5.79;77.00;100043.67;112218;233;168533;-59
2024/04/15 04:42:20;;;;;;;;;3.67;3.00;;;;;5.82;76.75;100036.80;112594;236;40774;-59
2024/04/15 04:45:07;;;;;;;;;6.00;5.00;;;;;5.84;76.54;100041.20;112420;236;41164;-55
2024/04/15 04:47:49;;;;;;;;;5.00;4.00;;;;;5.86;76.33;100037.65;112406;236;40267;-56
2024/04/15 04:50:28;;;;;;;;;4.00;3.00;;;;;5.85;76.20;100023.78;112421;236;39977;-57
2024/04/15 04:53:04;;;;;;;;;5.00;4.00;;;;;5.88;76.13;100008.63;112245;234;169225;-56
2024/04/15 04:55:42;;;;;;;;;4.00;3.50;;;;;5.89;76.08;100012.76;112483;232;39853;-56
2024/04/15 04:58:20;;;;;;;;;3.00;3.00;;;;;5.94;75.99;100016.77;112295;236;168581;-58
2024/04/15 05:00:56;;;;;;;;;3.00;3.00;;;;;5.96;75.80;100018.33;112417;233;39908;-58
2024/04/15 05:03:35;;;;;;;;;5.00;4.00;;;;;5.97;75.77;100012.33;112352;232;168792;-56
2024/04/15 05:06:15;;;;;;;;;6.00;3.00;;;;;5.99;75.70;100018.37;112410;232;39924;-56
2024/04/15 05:08:55;;;;;;;;;3.50;3.00;;;;;6.01;75.79;100016.35;112486;232;41991;-56
2024/04/15 05:11:31;;;;;;;;;5.00;3.25;;;;;6.03;75.86;100021.95;112373;236;42519;-56
2024/04/15 05:14:14;;;;;;;;;4.00;3.00;;;;;6.09;76.11;100032.11;112524;232;40609;-60
2024/04/15 05:16:50;;;;;;;;;6.00;5.00;;;;;6.15;76.16;100029.94;112273;237;168627;-59
2024/04/15 05:19:24;;;;;;;;;5.00;4.00;;;;;6.23;76.14;100033.36;112498;236;40163;-56
2024/04/15 05:21:59;;;;;;;;;9.00;6.00;;;;;6.28;76.03;100028.77;112261;232;169688;-55
2024/04/15 05:24:37;;;;;;;;;5.00;4.00;;;;;6.33;75.91;100021.10;112397;232;41565;-55
2024/04/15 05:27:11;;;;;;;;;6.00;4.00;;;;;6.34;76.03;100014.68;112290;232;169893;-55
2024/04/15 05:29:45;;;;;;;;;6.00;5.00;;;;;6.39;75.87;100016.81;112488;236;40838;-59
2024/04/15 05:32:21;;;;;;;;;6.00;4.33;;;;;6.47;76.01;100005.66;112638;232;41753;-59
2024/04/15 05:34:57;;;;;;;;;4.00;3.00;;;;;6.59;75.75;100011.95;112306;236;168714;-55
2024/04/15 05:37:34;;;;;;;;;6.50;4.75;;;;;6.69;75.68;100004.45;112378;237;40247;-55
2024/04/15 05:40:10;;;;;;;;;7.00;5.00;;;;;6.81;75.75;100005.06;112359;233;168495;-58
2024/04/15 05:42:52;;;;;;;;;4.50;4.00;;;;;6.98;75.45;99999.70;112415;234;41539;-59
2024/04/15 05:45:35;;;;;;;;;5.00;4.00;;;;;7.12;75.10;100000.03;112393;236;168287;-59
2024/04/15 05:48:11;;;;;;;;;6.00;5.00;;;;;7.24;74.74;99999.48;112490;237;40300;-56
2024/04/15 05:50:49;;;;;;;;;9.00;7.00;;;;;7.38;74.11;100010.20;112403;233;40549;-55
2024/04/15 05:53:25;;;;;;;;;5.00;4.50;;;;;7.44;73.69;100002.52;112485;237;170180;-58
2024/04/15 05:56:03;;;;;;;;;5.00;5.00;;;;;7.43;73.59;100006.79;112484;233;39653;-59
2024/04/15 05:58:37;;;;;;;;;5.67;5.00;;;;;7.45;73.24;100006.69;112279;233;168397;-56
2024/04/15 06:01:12;;;;;;;;;6.33;5.67;;;;;7.44;73.18;100001.23;112390;237;39655;-55
2024/04/15 06:03:50;;;;;;;;;6.00;5.00;;;;;7.43;72.85;100000.50;112241;237;168651;-59
2024/04/15 06:06:26;;;;;;;;;4.33;4.00;;;;;7.42;72.42;100001.17;112444;237;40661;-59
2024/04/15 06:09:01;;;;;;;;;6.75;6.00;;;;;7.39;72.40;100003.29;112457;233;40818;-58
2024/04/15 06:11:38;;;;;;;;;7.00;6.00;;;;;7.38;72.63;100005.00;112358;233;43071;-58
2024/04/15 06:14:21;;;;;;;;;7.00;6.00;;;;;7.40;72.47;100001.90;112488;232;40406;-58
2024/04/15 06:17:00;;;;;;;;;6.00;5.00;;;;;7.44;72.18;99996.67;112235;236;168396;-58
2024/04/15 06:19:36;;;;;;;;;5.67;5.00;;;;;7.47;72.19;99998.21;112563;237;40387;-57
2024/04/15 06:22:15;;;;;;;;;6.00;5.00;;;;;7.52;71.88;99996.86;112194;233;169114;-56
2024/04/15 06:24:52;;;;;;;;;7.00;6.00;;;;;7.56;71.73;99986.55;112401;233;42127;-54
2024/04/15 06:27:28;;;;;;;;;9.67;7.00;;;;;7.58;71.68;99989.70;112272;233;168626;-56
2024/04/15 06:30:06;;;;;;;;;6.00;5.25;;;;;7.62;71.58;99985.87;112421;236;39825;-58
2024/04/15 06:32:47;;;;;;;;;6.67;6.00;;;;;7.66;71.49;99989.38;112380;232;40635;-57
2024/04/15 06:35:28;;;;;;;;;9.00;7.00;;;;;7.72;71.28;99999.32;112291;236;169031;-54
2024/04/15 06:38:08;;;;;;;;;6.33;6.00;;;;;7.80;71.40;100003.27;112463;233;40210;-59
2024/04/15 06:40:51;;;;;;;;;8.00;6.00;;;;;7.89;71.14;99998.60;112282;237;169978;-58
2024/04/15 06:43:25;;;;;;;;;6.67;6.00;;;;;7.95;71.17;100004.73;112443;232;39602;-56
2024/04/15 06:46:02;;;;;;;;;8.00;7.00;;;;;8.05;70.86;99994.53;112273;236;168692;-56
2024/04/15 06:48:40;;;;;;;;;9.00;7.00;;;;;8.08;70.71;99996.10;111697;233;871276;-57
2024/04/15 06:51:21;;;;;;;;;8.00;6.00;;;;;8.10;70.49;99998.34;112211;233;169320;-58
2024/04/15 06:54:06;;;;;;;;;7.00;6.00;;;;;8.13;70.22;99997.30;112400;233;39862;-58
2024/04/15 06:56:44;;;;;;;;;9.00;6.75;;;;;8.18;70.24;99996.72;112420;233;39891;-58
2024/04/15 06:59:22;;;;;;;;;9.00;8.00;;;;;8.19;70.10;99982.99;112281;233;170417;-54
2024/04/15 07:02:00;;;;;;;;;8.00;7.00;;;;;8.24;70.06;99971.98;112378;237;40084;-55
2024/04/15 07:04:35;;;;;;;;;8.00;7.00;;;;;8.27;70.13;99975.55;112270;233;168783;-58
2024/04/15 07:07:11;;;;;;;;;5.50;5.00;;;;;8.37;70.08;99974.31;112404;237;41501;-58
2024/04/15 07:09:52;;;;;;;;;6.00;5.33;;;;;8.45;69.87;99973.55;112267;237;169251;-59
2024/04/15 07:12:29;;;;;;;;;9.00;7.00;;;;;8.51;69.60;99973.88;112365;237;40105;-58
2024/04/15 07:15:05;;;;;;;;;9.00;8.00;;;;;8.59;69.65;99977.75;112431;237;40322;-54
2024/04/15 07:17:46;;;;;;;;;8.00;6.00;;;;;8.65;69.70;99979.13;112443;237;40324;-55
2024/04/15 07:20:22;;;;;;;;;9.00;8.00;;;;;8.71;69.91;99968.89;112388;237;39936;-58
2024/04/15 07:23:01;;;;;;;;;5.50;5.00;;;;;8.72;70.08;99957.39;112464;237;168531;-57
2024/04/15 07:25:37;;;;;;;;;6.25;5.00;;;;;8.75;70.30;99957.99;112383;232;41298;-58
2024/04/15 07:28:15;;;;;;;;;5.00;4.00;;;;;8.76;70.29;99951.96;112259;236;168658;-59
2024/04/15 07:31:00;;;;;;;;;4.00;4.00;;;;;8.77;70.35;99959.27;112415;237;41107;-58
2024/04/15 07:33:42;;;;;;;;;6.00;4.00;;;;;8.79;70.38;99965.84;112225;236;169610;-57
2024/04/15 07:36:16;;;;;;;;;7.00;4.00;;;;;8.91;70.79;99958.85;112489;232;41549;-57
2024/04/15 07:38:51;;;;;;;;;5.00;4.00;;;;;9.05;70.80;99957.28;112832;232;39805;-55
2024/04/15 07:41:28;;;;;;;;;6.50;5.00;;;;;9.19;70.86;99958.09;112269;235;169498;-57
2024/04/15 07:44:02;;;;;;;;;4.00;4.00;;;;;9.28;70.84;99947.23;112363;236;40811;-55
2024/04/15 07:46:41;;;;;;;;;4.00;4.00;;;;;9.35;71.00;99940.31;112231;232;168774;-59
2024/04/15 07:49:20;;;;;;;;;5.00;4.00;;;;;9.45;71.00;99934.77;112420;232;41219;-54
2024/04/15 07:51:57;;;;;;;;;3.25;3.00;;;;;9.58;70.79;99945.66;112247;236;169001;-54
2024/04/15 07:54:33;;;;;;;;;4.00;3.00;;;;;9.62;70.80;99953.95;112464;233;40422;-56
2024/04/15 07:57:10;;;;;;;;;5.00;4.00;;;;;9.65;70.78;99946.06;112450;236;40927;-59
2024/04/15 07:59:52;;;;;;;;;4.00;3.00;;;;;9.67;70.67;99943.63;112507;233;39894;-57
2024/04/15 08:02:39;;;;;;;;;3.00;3.00;;;;;9.75;70.77;99935.98;112764;235;42403;-58
2024/04/15 08:05:17;;;;;;;;;6.00;5.00;;;;;9.92;70.75;99937.02;112240;233;169378;-56
2024/04/15 08:07:54;;;;;;;;;5.00;4.00;;;;;10.10;70.64;99930.89;112414;232;40573;-57
2024/04/15 08:10:29;;;;;;;;;4.00;3.75;;;;;10.39;70.60;99934.79;112239;236;168954;-58
2024/04/15 08:13:09;;;;;;;;;6.00;4.00;;;;;10.51;69.76;99924.27;112680;232;40075;-55
2024/04/15 08:15:47;;;;;;;;;3.33;3.00;;;;;10.57;69.50;99914.81;112532;235;169099;-57
2024/04/15 08:18:22;;;;;;;;;4.25;3.50;;;;;10.97;69.65;99908.92;112385;232;40182;-57
2024/04/15 08:21:00;;;;;;;;;6.00;4.00;;;;;11.33;69.39;99906.84;112411;232;40662;-55
2024/04/15 08:23:39;;;;;;;;;6.00;5.00;;;;;11.58;68.56;99906.90;112289;233;169312;-55
2024/04/15 08:26:15;;;;;;;;;3.50;3.00;;;;;11.90;68.15;99907.41;112802;231;41488;-59
2024/04/15 08:28:53;;;;;;;;;5.50;5.00;;;;;12.09;67.93;99913.81;112437;233;168792;-56
2024/04/15 08:31:35;;;;;;;;;4.50;3.00;;;;;12.10;67.17;99913.17;112458;232;40462;-55
2024/04/15 08:34:12;;;;;;;;;4.33;3.00;;;;;12.04;66.62;99916.48;112271;232;169361;-54
2024/04/15 08:36:51;;;;;;;;;3.25;3.00;;;;;12.04;66.17;99914.73;112677;233;40973;-55
2024/04/15 08:39:27;;;;;;;;;4.00;3.75;;;;;12.16;65.29;99913.66;112665;235;169091;-55
2024/04/15 08:42:15;;;;;;;;;4.00;3.00;;;;;12.32;64.63;99915.69;112343;232;40752;-56
2024/04/15 08:44:54;;;;;;;;;3.33;2.67;;;;;12.59;64.88;99916.47;112434;232;40325;-54
2024/04/15 08:47:38;;;;;;;;;3.00;3.00;;;;;12.72;64.63;99905.54;112233;233;169904;-54
2024/04/15 08:50:15;;;;;;;;;6.00;5.00;;;;;12.76;63.93;99904.64;112447;233;41229;-57
2024/04/15 08:52:52;;;;;;;;;3.00;2.50;;;;;12.76;63.36;99898.81;112279;233;168821;-55
2024/04/15 08:55:31;;;;;;;;;5.00;3.75;;;;;12.70;63.21;99889.04;112471;237;39896;-58
2024/04/15 08:58:05;;;;;;;;;4.00;3.00;;;;;12.60;62.92;99888.98;112351;236;169601;-59
2024/04/15 09:00:41;;;;;;;;;4.00;3.00;;;;;12.43;62.49;99896.42;112561;237;41827;-58
2024/04/15 09:03:22;;;;;;;;;3.33;3.00;;;;;12.46;62.49;99897.00;112376;234;169237;-54
2024/04/15 09:06:00;;;;;;;;;3.00;3.00;;;;;12.63;62.64;99893.02;112407;237;41885;-54
2024/04/15 09:08:44;;;;;;;;;3.50;2.75;;;;;12.82;62.22;99886.77;112460;236;39912;-57
2024/04/15 09:11:20;;;;;;;;;1.00;1.00;;;;;12.99;62.17;99895.09;112250;234;169035;-58
2024/04/15 09:13:56;;;;;;;;;4.00;3.50;;;;;13.13;61.81;99902.06;112418;233;40217;-58
2024/04/15 09:16:35;;;;;;;;;4.00;3.00;;;;;13.10;60.84;99908.20;112280;237;169027;-54
2024/04/15 09:19:14;;;;;;;;;3.00;3.00;;;;;12.92;60.48;99905.15;112399;233;40752;-54
2024/04/15 09:21:49;;;;;;;;;4.00;3.00;;;;;12.70;60.39;99889.73;112289;237;169282;-55
2024/04/15 09:24:26;;;;;;;;;3.00;3.00;;;;;12.57;60.92;99887.75;112603;233;40171;-58
2024/04/15 09:27:00;;;;;;;;;4.00;3.00;;;;;12.53;61.27;99890.19;112386;236;41018;-57
2024/04/15 09:29:40;;;;;;;;;3.00;3.00;;;;;12.85;61.25;99885.80;112306;236;168729;-55
2024/04/15 09:32:19;;;;;;;;;4.50;4.00;;;;;13.10;60.78;99887.64;112450;232;39971;-55
2024/04/15 09:35:04;;;;;;;;;4.00;3.00;;;;;13.16;60.45;99887.11;112287;234;169066;-55
2024/04/15 09:37:41;;;;;;;;;4.00;3.00;;;;;13.37;59.84;99874.76;112416;233;40106;-55
2024/04/15 09:40:26;;;;;;;;;4.00;4.00;;;;;13.70;60.00;99879.52;112271;233;169038;-54
2024/04/15 09:43:11;;;;;;;;;3.33;3.00;;;;;13.95;59.90;99879.52;112415;233;41577;-58
2024/04/15 09:45:46;;;;;;;;;4.00;3.00;;;;;14.25;60.23;99876.59;112267;233;169065;-55
2024/04/15 09:48:22;;;;;;;;;3.00;2.00;;;;;14.59;59.62;99871.27;112438;233;40487;-57
2024/04/15 09:51:00;;;;;;;;;3.00;2.00;;;;;14.69;58.54;99863.96;112398;236;40814;-58
2024/04/15 09:53:43;;;;;;;;;3.00;2.25;;;;;14.86;58.04;99862.77;112382;234;168909;-55
2024/04/15 09:56:30;;;;;;;;;2.00;2.00;;;;;14.74;56.57;99855.40;112387;233;41292;-55
2024/04/15 09:59:12;;;;;;;;;2.00;2.00;;;;;14.66;57.05;99858.17;112404;233;169068;-58
2024/04/15 10:01:48;;;;;;;;;3.00;2.00;;;;;14.84;56.55;99854.89;112401;237;40124;-58
2024/04/15 10:04:27;;;;;;;;;2.00;2.00;;;;;15.03;56.43;99841.07;112328;237;169833;-56
2024/04/15 10:07:05;;;;;;;;;4.00;3.00;;;;;15.19;56.26;99840.62;112446;232;40407;-56
2024/04/15 10:09:40;;;;;;;;;4.00;4.00;;;;;15.52;56.35;99829.39;112336;232;169115;-56
2024/04/15 10:12:16;;;;;;;;;3.00;2.00;;;;;15.66;55.22;99832.96;112519;233;40597;-56
2024/04/15 10:14:57;;;;;;;;;4.00;4.00;;;;;15.81;54.85;99833.36;112429;233;40569;-59
2024/04/15 10:17:33;;;;;;;;;3.00;3.00;;;;;15.74;54.12;99826.41;112258;237;168724;-58
2024/04/15 10:20:16;;;;;;;;;3.00;2.25;;;;;15.68;54.50;99817.42;112471;233;40105;-57
2024/04/15 10:22:56;;;;;;;;;5.00;4.00;;;;;15.90;54.49;99815.27;112311;237;168993;-57
2024/04/15 10:25:35;;;;;;;;;3.00;2.00;;;;;15.86;53.22;99820.28;112388;233;40741;-55
2024/04/15 10:28:13;;;;;;;;;5.00;4.00;;;;;15.67;53.37;99816.65;112223;237;168882;-56
2024/04/15 10:30:55;;;;;;;;;5.00;4.00;;;;;15.57;52.48;99814.27;112384;237;40091;-57
2024/04/15 10:33:33;;;;;;;;;4.00;4.00;;;;;15.36;52.39;99804.88;112295;233;170273;-55
2024/04/15 10:36:12;;;;;;;;;3.00;3.00;;;;;15.32;53.12;99802.64;112557;234;40525;-55
2024/04/15 10:38:54;;;;;;;;;4.00;4.00;;;;;15.38;52.92;99798.94;112403;233;40961;-55
2024/04/15 10:41:31;;;;;;;;;3.50;3.00;;;;;15.32;53.21;99792.34;112259;236;169558;-55
2024/04/15 10:44:16;;;;;;;;;4.25;3.75;;;;;15.55;53.31;99799.67;112593;232;40984;-56
2024/04/15 10:46:53;;;;;;;;;3.00;3.00;;;;;15.65;53.14;99793.77;112294;232;168918;-57
2024/04/15 10:49:34;;;;;;;;;4.67;4.00;;;;;15.50;52.81;99795.09;112423;233;39938;-55
2024/04/15 10:52:08;;;;;;;;;4.00;4.00;;;;;15.39;52.86;99793.49;112303;233;169343;-54
2024/04/15 10:54:43;;;;;;;;;3.00;2.67;;;;;15.52;53.04;99792.66;112449;237;41405;-57
2024/04/15 10:57:27;;;;;;;;;4.00;3.00;;;;;15.74;52.43;99789.99;112387;233;41847;-57
2024/04/15 11:00:09;;;;;;;;;3.00;2.00;;;;;15.96;51.77;99788.00;112358;233;40715;-54
2024/04/15 11:02:52;;;;;;;;;3.00;3.00;;;;;16.05;51.53;99775.86;112611;236;41662;-55
2024/04/15 11:05:30;;;;;;;;;4.00;3.00;;;;;16.32;51.54;99769.63;112257;237;169421;-55
2024/04/15 11:08:05;;;;;;;;;3.00;3.00;;;;;16.55;51.16;99768.74;112376;233;41724;-56
2024/04/15 11:10:40;;;;;;;;;4.00;3.00;;;;;16.78;50.65;99756.92;112238;233;168911;-55
2024/04/15 11:13:16;;;;;;;;;3.00;3.00;;;;;16.61;50.36;99759.65;112474;233;40014;-59
2024/04/15 11:15:56;;;;;;;;;3.00;3.00;;;;;16.66;50.25;99760.41;112285;233;168627;-59
2024/04/15 11:18:34;;;;;;;;;3.00;3.00;;;;;16.96;50.50;99751.62;112480;234;41962;-56
2024/04/15 11:21:11;;;;;;;;;2.00;2.00;;;;;17.00;49.84;99758.40;112178;237;41535;-57
2024/04/15 11:23:55;;;;;;;;;3.33;2.33;;;;;16.99;49.56;99753.05;112515;235;168677;-59
2024/04/15 11:26:36;;;;;;;;;2.00;2.00;;;;;16.83;49.42;99746.09;112428;233;40101;-59
2024/04/15 11:29:21;;;;;;;;;2.00;2.00;;;;;17.01;48.48;99744.84;112431;235;168891;-58
2024/04/15 11:31:57;;;;;;;;;2.00;1.50;;;;;16.97;48.99;99742.48;112334;233;41992;-58
2024/04/15 11:34:35;;;;;;;;;4.00;3.00;;;;;17.02;49.09;99736.44;112268;237;168970;-55
2024/04/15 11:37:12;;;;;;;;;3.00;3.00;;;;;17.19;48.57;99735.19;112388;234;41631;-55
2024/04/15 11:39:51;;;;;;;;;2.00;2.00;;;;;17.01;47.83;99732.94;112280;232;169466;-57
2024/04/15 11:42:30;;;;;;;;;4.00;3.00;;;;;16.87;46.90;99728.28;112358;237;40501;-57
2024/04/15 11:45:13;;;;;;;;;3.25;3.00;;;;;16.62;46.85;99724.88;112404;237;41329;-58
2024/04/15 11:47:56;;;;;;;;;4.00;3.00;;;;;16.38;47.33;99712.99;112102;236;40997;-57
2024/04/15 11:50:35;;;;;;;;;4.00;3.00;;;;;16.22;47.28;99706.45;112410;233;41271;-56
2024/04/15 11:53:11;;;;;;;;;3.00;2.33;;;;;16.26;47.72;99706.71;112261;237;168995;-56
2024/04/15 11:55:46;;;;;;;;;3.00;3.00;;;;;16.41;47.85;99698.81;112405;236;40925;-55
2024/04/15 11:58:27;;;;;;;;;4.00;4.00;;;;;16.41;48.07;99700.84;112262;236;170283;-56
2024/04/15 12:01:03;;;;;;;;;3.00;3.00;;;;;16.28;47.94;99703.98;112392;233;40452;-56
2024/04/15 12:03:40;;;;;;;;;4.50;3.75;;;;;16.15;47.53;99694.06;112237;233;169626;-58
2024/04/15 12:06:19;;;;;;;;;3.00;3.00;;;;;15.87;47.40;99685.60;112351;233;39778;-58
2024/04/15 12:09:00;;;;;;;;;4.00;3.67;;;;;15.81;47.29;99683.39;112396;233;40112;-55
2024/04/15 12:11:35;;;;;;;;;3.00;3.00;;;;;15.63;47.40;99684.30;112352;233;168556;-55
2024/04/15 12:14:11;;;;;;;;;3.67;3.00;;;;;15.41;47.93;99681.79;112379;233;41167;-57
2024/04/15 12:16:51;;;;;;;;;4.00;4.00;;;;;15.33;47.70;99671.81;112223;237;168958;-58
2024/04/15 12:19:33;;;;;;;;;3.00;2.00;;;;;15.55;47.76;99668.67;112429;234;40481;-56
2024/04/15 12:22:13;;;;;;;;;3.00;2.00;;;;;15.87;48.05;99673.92;112232;237;169247;-56